Keysburg, Kentucky
Current Conditions -  °F | °C
As of 9:52 PM on Thursday 20 Nov 2014 (Local Time) from KCKV Reporting Station
Clear Clear  
Wind Chill: 28°   Ceiling: Unl
Heat Index: 28°   Visibility: 10mi
Dew Point: 22°   Wind: 0mph
Humidity: 78%   Direction: NA
Pressure: 30.3"   Gusts: NA
Location:  36.7099°N, 87.0897°W
Report Text: KCKV 210352Z AUTO 00000KT 10SM CLR M02/M06 A3030 RMK AO2 SLP265 T10221056
Loading
Personal Weather Stations






























Interactive Weather Map New forecast layout! Learn more

10-Day Weather Forecast

Advertisements
Track Severe Weather on mobile